sensor_id;sensor_type;location;lat;lon;timestamp;pressure;altitude;pressure_sealevel;temperature;humidity
47815;BME280;33579;50.058;18.130;2023-06-14T00:00:21;99152.22;;;13.91;96.59
47815;BME280;33579;50.058;18.130;2023-06-14T00:01:22;99155.84;;;13.90;95.94
47815;BME280;33579;50.058;18.130;2023-06-14T00:02:24;99151.50;;;13.81;96.04
47815;BME280;33579;50.058;18.130;2023-06-14T00:03:26;99150.16;;;13.77;95.95
47815;BME280;33579;50.058;18.130;2023-06-14T00:04:27;99154.78;;;13.75;95.68
47815;BME280;33579;50.058;18.130;2023-06-14T00:05:29;99150.69;;;13.81;96.23
47815;BME280;33579;50.058;18.130;2023-06-14T00:06:31;99149.16;;;13.78;96.55
47815;BME280;33579;50.058;18.130;2023-06-14T00:07:37;99150.50;;;13.82;98.46
47815;BME280;33579;50.058;18.130;2023-06-14T00:08:39;99151.66;;;13.80;98.42
47815;BME280;33579;50.058;18.130;2023-06-14T00:09:40;99152.81;;;13.77;97.95
47815;BME280;33579;50.058;18.130;2023-06-14T00:10:42;99145.00;;;13.75;97.78
47815;BME280;33579;50.058;18.130;2023-06-14T00:11:44;99142.22;;;13.77;99.46
47815;BME280;33579;50.058;18.130;2023-06-14T00:12:46;99154.88;;;13.65;100.00
47815;BME280;33579;50.058;18.130;2023-06-14T00:13:47;99143.13;;;13.59;100.00
47815;BME280;33579;50.058;18.130;2023-06-14T00:14:49;99156.03;;;13.44;100.00
47815;BME280;33579;50.058;18.130;2023-06-14T00:15:51;99153.25;;;13.46;100.00
47815;BME280;33579;50.058;18.130;2023-06-14T00:16:53;99150.13;;;13.51;100.00
47815;BME280;33579;50.058;18.130;2023-06-14T00:17:54;99150.00;;;13.52;100.00
47815;BME280;33579;50.058;18.130;2023-06-14T00:18:56;99151.28;;;13.48;100.00
47815;BME280;33579;50.058;18.130;2023-06-14T00:19:59;99151.97;;;13.50;100.00
47815;BME280;33579;50.058;18.130;2023-06-14T00:21:00;99153.00;;;13.57;100.00
47815;BME280;33579;50.058;18.130;2023-06-14T00:22:02;99150.34;;;13.57;100.00
47815;BME280;33579;50.058;18.130;2023-06-14T00:23:04;99157.00;;;13.43;99.22
47815;BME280;33579;50.058;18.130;2023-06-14T00:24:07;99161.63;;;13.41;99.02
47815;BME280;33579;50.058;18.130;2023-06-14T00:25:09;99154.66;;;13.40;98.35
47815;BME280;33579;50.058;18.130;2023-06-14T00:26:28;99157.69;;;13.45;98.79
47815;BME280;33579;50.058;18.130;2023-06-14T00:27:30;99158.69;;;13.44;98.93
47815;BME280;33579;50.058;18.130;2023-06-14T00:28:32;99156.88;;;13.45;98.95
47815;BME280;33579;50.058;18.130;2023-06-14T00:29:34;99165.78;;;13.44;99.11
47815;BME280;33579;50.058;18.130;2023-06-14T00:30:38;99156.47;;;13.40;98.63
47815;BME280;33579;50.058;18.130;2023-06-14T00:31:40;99163.84;;;13.46;98.11
47815;BME280;33579;50.058;18.130;2023-06-14T00:32:42;99160.69;;;13.51;99.78
47815;BME280;33579;50.058;18.130;2023-06-14T00:33:44;99162.53;;;13.50;99.75
47815;BME280;33579;50.058;18.130;2023-06-14T00:34:46;99163.97;;;13.44;98.36
47815;BME280;33579;50.058;18.130;2023-06-14T00:35:48;99164.84;;;13.35;98.31
47815;BME280;33579;50.058;18.130;2023-06-14T00:36:49;99162.38;;;13.33;97.82
47815;BME280;33579;50.058;18.130;2023-06-14T00:37:51;99163.19;;;13.34;98.16
47815;BME280;33579;50.058;18.130;2023-06-14T00:38:53;99162.13;;;13.27;100.00
47815;BME280;33579;50.058;18.130;2023-06-14T00:39:55;99166.53;;;13.18;100.00
47815;BME280;33579;50.058;18.130;2023-06-14T00:40:56;99168.19;;;13.19;100.00
47815;BME280;33579;50.058;18.130;2023-06-14T00:41:58;99161.84;;;13.12;100.00
47815;BME280;33579;50.058;18.130;2023-06-14T00:43:00;99165.75;;;13.07;100.00
47815;BME280;33579;50.058;18.130;2023-06-14T00:44:02;99164.41;;;13.03;100.00
47815;BME280;33579;50.058;18.130;2023-06-14T00:45:04;99153.25;;;13.10;100.00
47815;BME280;33579;50.058;18.130;2023-06-14T00:46:06;99164.78;;;13.08;100.00
47815;BME280;33579;50.058;18.130;2023-06-14T00:47:07;99155.19;;;13.07;100.00
47815;BME280;33579;50.058;18.130;2023-06-14T00:48:09;99159.34;;;13.10;100.00
47815;BME280;33579;50.058;18.130;2023-06-14T00:49:14;99159.88;;;13.14;100.00
47815;BME280;33579;50.058;18.130;2023-06-14T00:50:16;99161.91;;;13.20;100.00
47815;BME280;33579;50.058;18.130;2023-06-14T00:51:18;99159.44;;;13.18;100.00
47815;BME280;33579;50.058;18.130;2023-06-14T00:52:20;99153.97;;;13.20;100.00
47815;BME280;33579;50.058;18.130;2023-06-14T00:53:22;99158.81;;;13.25;100.00
47815;BME280;33579;50.058;18.130;2023-06-14T00:54:25;99157.84;;;13.26;100.00
47815;BME280;33579;50.058;18.130;2023-06-14T00:55:27;99156.50;;;13.21;100.00
47815;BME280;33579;50.058;18.130;2023-06-14T00:56:29;99162.91;;;13.19;100.00
47815;BME280;33579;50.058;18.130;2023-06-14T00:57:31;99155.28;;;13.16;99.95
47815;BME280;33579;50.058;18.130;2023-06-14T00:58:33;99158.59;;;13.18;99.71
47815;BME280;33579;50.058;18.130;2023-06-14T00:59:40;99148.03;;;13.18;100.00
47815;BME280;33579;50.058;18.130;2023-06-14T01:00:43;99146.06;;;13.20;100.00
47815;BME280;33579;50.058;18.130;2023-06-14T01:01:45;99151.06;;;13.23;100.00
47815;BME280;33579;50.058;18.130;2023-06-14T01:02:46;99149.91;;;13.26;100.00
47815;BME280;33579;50.058;18.130;2023-06-14T01:03:48;99150.59;;;13.28;100.00
47815;BME280;33579;50.058;18.130;2023-06-14T01:04:51;99147.97;;;13.28;100.00
47815;BME280;33579;50.058;18.130;2023-06-14T01:05:59;99146.81;;;13.30;100.00
47815;BME280;33579;50.058;18.130;2023-06-14T01:07:14;99147.47;;;13.32;100.00
47815;BME280;33579;50.058;18.130;2023-06-14T01:08:40;99151.97;;;13.32;100.00
47815;BME280;33579;50.058;18.130;2023-06-14T01:11:22;99158.69;;;13.26;100.00
47815;BME280;33579;50.058;18.130;2023-06-14T01:12:33;99155.63;;;13.21;99.37
47815;BME280;33579;50.058;18.130;2023-06-14T01:13:42;99156.78;;;13.18;98.59
47815;BME280;33579;50.058;18.130;2023-06-14T01:14:47;99152.94;;;13.13;97.44
47815;BME280;33579;50.058;18.130;2023-06-14T01:15:50;99151.06;;;13.05;97.46
47815;BME280;33579;50.058;18.130;2023-06-14T01:16:52;99155.81;;;13.01;97.97
47815;BME280;33579;50.058;18.130;2023-06-14T01:17:55;99156.13;;;12.98;98.39
47815;BME280;33579;50.058;18.130;2023-06-14T01:18:57;99151.66;;;12.99;98.65
47815;BME280;33579;50.058;18.130;2023-06-14T01:20:02;99150.00;;;12.98;98.67
47815;BME280;33579;50.058;18.130;2023-06-14T01:21:03;99144.72;;;12.98;98.78
47815;BME280;33579;50.058;18.130;2023-06-14T01:22:05;99149.41;;;13.04;100.00
47815;BME280;33579;50.058;18.130;2023-06-14T01:23:07;99145.78;;;13.05;100.00
47815;BME280;33579;50.058;18.130;2023-06-14T01:24:09;99155.50;;;13.04;99.33
47815;BME280;33579;50.058;18.130;2023-06-14T01:25:11;99147.88;;;13.01;99.66
47815;BME280;33579;50.058;18.130;2023-06-14T01:26:12;99148.69;;;13.02;99.69
47815;BME280;33579;50.058;18.130;2023-06-14T01:27:14;99145.56;;;12.98;100.00
47815;BME280;33579;50.058;18.130;2023-06-14T01:28:16;99155.50;;;12.86;100.00
47815;BME280;33579;50.058;18.130;2023-06-14T01:29:17;99146.75;;;12.68;100.00
47815;BME280;33579;50.058;18.130;2023-06-14T01:30:21;99149.34;;;12.49;100.00
47815;BME280;33579;50.058;18.130;2023-06-14T01:31:24;99147.44;;;12.42;100.00
47815;BME280;33579;50.058;18.130;2023-06-14T01:32:28;99144.81;;;12.32;100.00
47815;BME280;33579;50.058;18.130;2023-06-14T01:33:32;99149.00;;;12.34;100.00
47815;BME280;33579;50.058;18.130;2023-06-14T01:34:34;99147.72;;;12.39;100.00
47815;BME280;33579;50.058;18.130;2023-06-14T01:35:36;99155.88;;;12.45;100.00
47815;BME280;33579;50.058;18.130;2023-06-14T01:36:40;99153.63;;;12.50;100.00
47815;BME280;33579;50.058;18.130;2023-06-14T01:37:43;99149.41;;;12.58;100.00
47815;BME280;33579;50.058;18.130;2023-06-14T01:38:46;99160.38;;;12.63;100.00
47815;BME280;33579;50.058;18.130;2023-06-14T01:39:48;99154.50;;;12.69;100.00
47815;BME280;33579;50.058;18.130;2023-06-14T01:40:55;99158.06;;;12.78;100.00
47815;BME280;33579;50.058;18.130;2023-06-14T01:42:00;99155.66;;;12.85;100.00
47815;BME280;33579;50.058;18.130;2023-06-14T01:43:03;99165.91;;;12.88;100.00
47815;BME280;33579;50.058;18.130;2023-06-14T01:44:05;99147.78;;;12.75;100.00
47815;BME280;33579;50.058;18.130;2023-06-14T01:45:09;99153.06;;;12.75;100.00
47815;BME280;33579;50.058;18.130;2023-06-14T01:46:11;99161.59;;;12.69;100.00
47815;BME280;33579;50.058;18.130;2023-06-14T01:47:14;99154.66;;;12.68;100.00
47815;BME280;33579;50.058;18.130;2023-06-14T01:48:16;99158.78;;;12.70;100.00
47815;BME280;33579;50.058;18.130;2023-06-14T01:49:18;99155.56;;;12.76;100.00
47815;BME280;33579;50.058;18.130;2023-06-14T01:50:20;99150.53;;;12.83;100.00
47815;BME280;33579;50.058;18.130;2023-06-14T01:51:22;99155.34;;;12.88;100.00
47815;BME280;33579;50.058;18.130;2023-06-14T01:52:24;99151.72;;;12.89;100.00
47815;BME280;33579;50.058;18.130;2023-06-14T01:53:25;99158.88;;;12.78;100.00
47815;BME280;33579;50.058;18.130;2023-06-14T01:54:27;99151.34;;;12.84;100.00
47815;BME280;33579;50.058;18.130;2023-06-14T01:55:29;99155.66;;;12.85;100.00
47815;BME280;33579;50.058;18.130;2023-06-14T01:56:30;99156.34;;;12.87;100.00
47815;BME280;33579;50.058;18.130;2023-06-14T01:57:33;99150.88;;;12.88;100.00
47815;BME280;33579;50.058;18.130;2023-06-14T01:58:34;99150.06;;;12.88;100.00
47815;BME280;33579;50.058;18.130;2023-06-14T01:59:36;99145.09;;;12.85;100.00
47815;BME280;33579;50.058;18.130;2023-06-14T02:00:38;99154.69;;;12.86;100.00
47815;BME280;33579;50.058;18.130;2023-06-14T02:01:39;99154.81;;;12.84;100.00
47815;BME280;33579;50.058;18.130;2023-06-14T02:02:41;99149.69;;;12.83;100.00
47815;BME280;33579;50.058;18.130;2023-06-14T02:03:43;99149.16;;;12.79;100.00
47815;BME280;33579;50.058;18.130;2023-06-14T02:04:44;99148.31;;;12.78;100.00
47815;BME280;33579;50.058;18.130;2023-06-14T02:05:46;99146.53;;;12.79;100.00
47815;BME280;33579;50.058;18.130;2023-06-14T02:06:48;99147.50;;;12.78;100.00
47815;BME280;33579;50.058;18.130;2023-06-14T02:07:49;99154.44;;;12.79;100.00
47815;BME280;33579;50.058;18.130;2023-06-14T02:08:52;99145.16;;;12.75;100.00
47815;BME280;33579;50.058;18.130;2023-06-14T02:09:54;99137.22;;;12.75;100.00
47815;BME280;33579;50.058;18.130;2023-06-14T02:10:57;99145.69;;;12.78;100.00
47815;BME280;33579;50.058;18.130;2023-06-14T02:11:58;99149.84;;;12.81;100.00
47815;BME280;33579;50.058;18.130;2023-06-14T02:13:01;99152.31;;;12.83;100.00
47815;BME280;33579;50.058;18.130;2023-06-14T02:14:02;99155.66;;;12.85;100.00
47815;BME280;33579;50.058;18.130;2023-06-14T02:15:04;99149.69;;;12.83;100.00
47815;BME280;33579;50.058;18.130;2023-06-14T02:16:06;99151.19;;;12.85;100.00
47815;BME280;33579;50.058;18.130;2023-06-14T02:17:08;99158.13;;;12.86;100.00
47815;BME280;33579;50.058;18.130;2023-06-14T02:18:10;99153.03;;;12.85;100.00
47815;BME280;33579;50.058;18.130;2023-06-14T02:19:11;99154.28;;;12.81;100.00
47815;BME280;33579;50.058;18.130;2023-06-14T02:20:13;99162.88;;;12.83;100.00
47815;BME280;33579;50.058;18.130;2023-06-14T02:21:15;99158.56;;;12.82;100.00
47815;BME280;33579;50.058;18.130;2023-06-14T02:22:20;99162.06;;;12.82;100.00
47815;BME280;33579;50.058;18.130;2023-06-14T02:23:21;99155.44;;;12.78;100.00
47815;BME280;33579;50.058;18.130;2023-06-14T02:24:25;99156.25;;;12.78;100.00
47815;BME280;33579;50.058;18.130;2023-06-14T02:25:26;99159.72;;;12.79;100.00
47815;BME280;33579;50.058;18.130;2023-06-14T02:26:28;99159.72;;;12.79;100.00
47815;BME280;33579;50.058;18.130;2023-06-14T02:27:30;99157.91;;;12.79;100.00
47815;BME280;33579;50.058;18.130;2023-06-14T02:28:31;99159.56;;;12.81;100.00
47815;BME280;33579;50.058;18.130;2023-06-14T02:29:33;99153.59;;;12.78;100.00
47815;BME280;33579;50.058;18.130;2023-06-14T02:30:37;99160.94;;;12.85;100.00
47815;BME280;33579;50.058;18.130;2023-06-14T02:31:40;99159.88;;;12.77;100.00
47815;BME280;33579;50.058;18.130;2023-06-14T02:32:42;99149.22;;;12.69;100.00
47815;BME280;33579;50.058;18.130;2023-06-14T02:33:46;99158.94;;;12.69;100.00
47815;BME280;33579;50.058;18.130;2023-06-14T02:34:48;99155.78;;;12.65;100.00
47815;BME280;33579;50.058;18.130;2023-06-14T02:35:50;99155.91;;;12.63;100.00
47815;BME280;33579;50.058;18.130;2023-06-14T02:36:51;99157.97;;;12.70;100.00
47815;BME280;33579;50.058;18.130;2023-06-14T02:37:54;99157.66;;;12.73;100.00
47815;BME280;33579;50.058;18.130;2023-06-14T02:38:57;99152.69;;;12.70;100.00
47815;BME280;33579;50.058;18.130;2023-06-14T02:39:58;99150.88;;;12.70;100.00
47815;BME280;33579;50.058;18.130;2023-06-14T02:41:00;99151.72;;;12.71;100.00
47815;BME280;33579;50.058;18.130;2023-06-14T02:42:02;99152.84;;;12.68;100.00
47815;BME280;33579;50.058;18.130;2023-06-14T02:43:04;99149.88;;;12.71;100.00
47815;BME280;33579;50.058;18.130;2023-06-14T02:44:06;99152.38;;;12.73;100.00
47815;BME280;33579;50.058;18.130;2023-06-14T02:45:08;99155.03;;;12.73;100.00
47815;BME280;33579;50.058;18.130;2023-06-14T02:46:10;99151.56;;;12.72;100.00
47815;BME280;33579;50.058;18.130;2023-06-14T02:47:12;99150.06;;;12.70;100.00
47815;BME280;33579;50.058;18.130;2023-06-14T02:48:13;99153.44;;;12.62;100.00
47815;BME280;33579;50.058;18.130;2023-06-14T02:49:15;99152.91;;;12.58;100.00
47815;BME280;33579;50.058;18.130;2023-06-14T02:50:17;99154.84;;;12.56;100.00
47815;BME280;33579;50.058;18.130;2023-06-14T02:51:18;99156.28;;;12.50;100.00
47815;BME280;33579;50.058;18.130;2023-06-14T02:52:20;99155.50;;;12.40;99.84
47815;BME280;33579;50.058;18.130;2023-06-14T02:53:22;99154.28;;;12.34;100.00
47815;BME280;33579;50.058;18.130;2023-06-14T02:54:23;99150.66;;;12.35;100.00
47815;BME280;33579;50.058;18.130;2023-06-14T02:55:26;99156.59;;;12.37;100.00
47815;BME280;33579;50.058;18.130;2023-06-14T02:56:27;99156.78;;;12.36;100.00
47815;BME280;33579;50.058;18.130;2023-06-14T02:57:29;99154.41;;;12.33;100.00
47815;BME280;33579;50.058;18.130;2023-06-14T02:58:31;99151.25;;;12.29;100.00
47815;BME280;33579;50.058;18.130;2023-06-14T02:59:32;99152.38;;;12.27;100.00
47815;BME280;33579;50.058;18.130;2023-06-14T03:00:34;99155.31;;;12.23;100.00
47815;BME280;33579;50.058;18.130;2023-06-14T03:01:36;99149.63;;;12.18;100.00
47815;BME280;33579;50.058;18.130;2023-06-14T03:02:40;99158.81;;;12.14;100.00
47815;BME280;33579;50.058;18.130;2023-06-14T03:03:42;99160.06;;;12.10;100.00
47815;BME280;33579;50.058;18.130;2023-06-14T03:04:44;99160.63;;;12.04;100.00
47815;BME280;33579;50.058;18.130;2023-06-14T03:05:49;99167.00;;;12.01;100.00
47815;BME280;33579;50.058;18.130;2023-06-14T03:06:53;99159.94;;;12.02;100.00
47815;BME280;33579;50.058;18.130;2023-06-14T03:07:57;99164.13;;;12.04;100.00
47815;BME280;33579;50.058;18.130;2023-06-14T03:08:59;99161.63;;;12.03;100.00
47815;BME280;33579;50.058;18.130;2023-06-14T03:10:01;99161.63;;;12.03;100.00
47815;BME280;33579;50.058;18.130;2023-06-14T03:11:04;99160.91;;;12.01;100.00
47815;BME280;33579;50.058;18.130;2023-06-14T03:12:07;99161.63;;;12.03;100.00
47815;BME280;33579;50.058;18.130;2023-06-14T03:13:09;99168.41;;;12.05;100.00
47815;BME280;33579;50.058;18.130;2023-06-14T03:14:11;99165.78;;;12.05;100.00
47815;BME280;33579;50.058;18.130;2023-06-14T03:15:13;99163.13;;;12.05;100.00
47815;BME280;33579;50.058;18.130;2023-06-14T03:16:19;99163.41;;;12.02;100.00
47815;BME280;33579;50.058;18.130;2023-06-14T03:17:21;99167.16;;;12.00;100.00
47815;BME280;33579;50.058;18.130;2023-06-14T03:18:23;99170.75;;;11.99;100.00
47815;BME280;33579;50.058;18.130;2023-06-14T03:19:29;99165.50;;;11.99;100.00
47815;BME280;33579;50.058;18.130;2023-06-14T03:20:31;99178.66;;;11.99;100.00
47815;BME280;33579;50.058;18.130;2023-06-14T03:21:32;99174.22;;;11.99;100.00
47815;BME280;33579;50.058;18.130;2023-06-14T03:22:36;99172.16;;;12.03;100.00
47815;BME280;33579;50.058;18.130;2023-06-14T03:23:39;99172.84;;;12.05;100.00
47815;BME280;33579;50.058;18.130;2023-06-14T03:24:41;99172.53;;;12.08;100.00
47815;BME280;33579;50.058;18.130;2023-06-14T03:25:46;99179.66;;;12.07;100.00
47815;BME280;33579;50.058;18.130;2023-06-14T03:26:47;99175.06;;;12.09;100.00
47815;BME280;33579;50.058;18.130;2023-06-14T03:27:49;99178.38;;;12.12;100.00
47815;BME280;33579;50.058;18.130;2023-06-14T03:28:52;99172.28;;;12.11;100.00
47815;BME280;33579;50.058;18.130;2023-06-14T03:29:55;99170.31;;;12.13;100.00
47815;BME280;33579;50.058;18.130;2023-06-14T03:30:57;99171.56;;;12.19;100.00
47815;BME280;33579;50.058;18.130;2023-06-14T03:32:02;99174.56;;;12.24;100.00
47815;BME280;33579;50.058;18.130;2023-06-14T03:33:10;99173.47;;;12.27;100.00
47815;BME280;33579;50.058;18.130;2023-06-14T03:34:13;99168.50;;;12.23;100.00
47815;BME280;33579;50.058;18.130;2023-06-14T03:35:15;99167.50;;;12.25;100.00
47815;BME280;33579;50.058;18.130;2023-06-14T03:36:17;99172.50;;;12.28;100.00
47815;BME280;33579;50.058;18.130;2023-06-14T03:37:19;99165.94;;;12.32;100.00
47815;BME280;33579;50.058;18.130;2023-06-14T03:38:22;99164.81;;;12.34;100.00
47815;BME280;33579;50.058;18.130;2023-06-14T03:39:24;99168.00;;;12.38;100.00
47815;BME280;33579;50.058;18.130;2023-06-14T03:40:26;99171.03;;;12.43;100.00
47815;BME280;33579;50.058;18.130;2023-06-14T03:41:34;99174.06;;;12.48;100.00
47815;BME280;33579;50.058;18.130;2023-06-14T03:42:36;99171.81;;;12.54;100.00
47815;BME280;33579;50.058;18.130;2023-06-14T03:43:37;99166.41;;;12.55;100.00
47815;BME280;33579;50.058;18.130;2023-06-14T03:44:39;99173.03;;;12.59;100.00
47815;BME280;33579;50.058;18.130;2023-06-14T03:45:41;99174.69;;;12.60;100.00
47815;BME280;33579;50.058;18.130;2023-06-14T03:46:44;99177.88;;;12.64;100.00
47815;BME280;33579;50.058;18.130;2023-06-14T03:47:46;99174.38;;;12.63;100.00
47815;BME280;33579;50.058;18.130;2023-06-14T03:48:48;99178.97;;;12.61;100.00
47815;BME280;33579;50.058;18.130;2023-06-14T03:49:50;99171.50;;;12.57;100.00
47815;BME280;33579;50.058;18.130;2023-06-14T03:50:52;99174.31;;;12.55;100.00
47815;BME280;33579;50.058;18.130;2023-06-14T03:51:55;99172.34;;;12.57;100.00
47815;BME280;33579;50.058;18.130;2023-06-14T03:52:58;99177.53;;;12.49;100.00
47815;BME280;33579;50.058;18.130;2023-06-14T03:54:00;99173.66;;;12.43;100.00
47815;BME280;33579;50.058;18.130;2023-06-14T03:55:22;99175.47;;;12.43;100.00
47815;BME280;33579;50.058;18.130;2023-06-14T03:56:44;99175.72;;;12.49;100.00
47815;BME280;33579;50.058;18.130;2023-06-14T03:57:45;99176.94;;;12.55;100.00
47815;BME280;33579;50.058;18.130;2023-06-14T03:58:50;99176.34;;;12.61;100.00
47815;BME280;33579;50.058;18.130;2023-06-14T03:59:54;99175.91;;;12.66;100.00
47815;BME280;33579;50.058;18.130;2023-06-14T04:00:57;99177.88;;;12.64;100.00
47815;BME280;33579;50.058;18.130;2023-06-14T04:01:59;99176.59;;;12.68;100.00
47815;BME280;33579;50.058;18.130;2023-06-14T04:03:01;99169.66;;;12.67;100.00
47815;BME280;33579;50.058;18.130;2023-06-14T04:04:03;99175.59;;;12.69;100.00
47815;BME280;33579;50.058;18.130;2023-06-14T04:05:05;99173.50;;;12.73;100.00
47815;BME280;33579;50.058;18.130;2023-06-14T04:06:06;99173.13;;;12.68;100.00
47815;BME280;33579;50.058;18.130;2023-06-14T04:07:08;99180.81;;;12.61;100.00
47815;BME280;33579;50.058;18.130;2023-06-14T04:08:11;99172.88;;;12.61;100.00
47815;BME280;33579;50.058;18.130;2023-06-14T04:09:12;99168.13;;;12.64;100.00
47815;BME280;33579;50.058;18.130;2023-06-14T04:10:17;99176.03;;;12.64;100.00
47815;BME280;33579;50.058;18.130;2023-06-14T04:11:19;99176.75;;;12.67;100.00
47815;BME280;33579;50.058;18.130;2023-06-14T04:12:21;99176.88;;;12.65;100.00
47815;BME280;33579;50.058;18.130;2023-06-14T04:13:22;99175.91;;;12.66;100.00
47815;BME280;33579;50.058;18.130;2023-06-14T04:14:24;99184.06;;;12.73;100.00
47815;BME280;33579;50.058;18.130;2023-06-14T04:15:26;99181.28;;;12.74;100.00
47815;BME280;33579;50.058;18.130;2023-06-14T04:16:30;99180.69;;;12.81;100.00
47815;BME280;33579;50.058;18.130;2023-06-14T04:17:33;99187.34;;;12.85;100.00
47815;BME280;33579;50.058;18.130;2023-06-14T04:18:35;99182.75;;;12.87;100.00
47815;BME280;33579;50.058;18.130;2023-06-14T04:19:37;99179.94;;;12.88;100.00
47815;BME280;33579;50.058;18.130;2023-06-14T04:20:38;99188.28;;;12.84;100.00
47815;BME280;33579;50.058;18.130;2023-06-14T04:21:40;99185.97;;;12.81;100.00
47815;BME280;33579;50.058;18.130;2023-06-14T04:22:42;99185.66;;;12.84;100.00
47815;BME280;33579;50.058;18.130;2023-06-14T04:23:45;99185.06;;;12.90;100.00
47815;BME280;33579;50.058;18.130;2023-06-14T04:24:49;99188.94;;;12.96;100.00
47815;BME280;33579;50.058;18.130;2023-06-14T04:26:01;99188.47;;;13.00;100.00
47815;BME280;33579;50.058;18.130;2023-06-14T04:27:03;99183.19;;;13.00;100.00
47815;BME280;33579;50.058;18.130;2023-06-14T04:28:06;99195.72;;;12.98;100.00
47815;BME280;33579;50.058;18.130;2023-06-14T04:29:08;99188.31;;;13.02;100.00
47815;BME280;33579;50.058;18.130;2023-06-14T04:30:15;99189.38;;;13.09;100.00
47815;BME280;33579;50.058;18.130;2023-06-14T04:31:23;99190.75;;;13.13;100.00
47815;BME280;33579;50.058;18.130;2023-06-14T04:32:26;99184.84;;;13.01;100.00
47815;BME280;33579;50.058;18.130;2023-06-14T04:33:28;99182.13;;;12.93;100.00
47815;BME280;33579;50.058;18.130;2023-06-14T04:34:30;99191.47;;;12.87;100.00
47815;BME280;33579;50.058;18.130;2023-06-14T04:35:32;99193.31;;;12.87;100.00
47815;BME280;33579;50.058;18.130;2023-06-14T04:36:34;99188.16;;;12.85;100.00
47815;BME280;33579;50.058;18.130;2023-06-14T04:37:36;99192.66;;;12.75;100.00
47815;BME280;33579;50.058;18.130;2023-06-14T04:38:38;99194.75;;;12.71;100.00
47815;BME280;33579;50.058;18.130;2023-06-14T04:39:40;99191.84;;;12.74;100.00
47815;BME280;33579;50.058;18.130;2023-06-14T04:40:41;99194.41;;;12.84;100.00
47815;BME280;33579;50.058;18.130;2023-06-14T04:41:45;99188.16;;;12.85;100.00
47815;BME280;33579;50.058;18.130;2023-06-14T04:42:46;99200.38;;;12.86;100.00
47815;BME280;33579;50.058;18.130;2023-06-14T04:43:49;99197.75;;;12.86;100.00
47815;BME280;33579;50.058;18.130;2023-06-14T04:44:51;99198.47;;;12.78;100.00
47815;BME280;33579;50.058;18.130;2023-06-14T04:45:53;99193.34;;;12.77;100.00
47815;BME280;33579;50.058;18.130;2023-06-14T04:46:56;99198.00;;;12.65;100.00
47815;BME280;33579;50.058;18.130;2023-06-14T04:47:59;99195.25;;;12.57;100.00
47815;BME280;33579;50.058;18.130;2023-06-14T04:49:02;99200.41;;;12.58;100.00
47815;BME280;33579;50.058;18.130;2023-06-14T04:50:04;99199.41;;;12.59;100.00
47815;BME280;33579;50.058;18.130;2023-06-14T04:51:07;99202.44;;;12.64;100.00
47815;BME280;33579;50.058;18.130;2023-06-14T04:52:10;99206.75;;;12.65;100.00
47815;BME280;33579;50.058;18.130;2023-06-14T04:53:14;99205.31;;;12.71;100.00
47815;BME280;33579;50.058;18.130;2023-06-14T04:54:16;99199.31;;;12.79;100.00
47815;BME280;33579;50.058;18.130;2023-06-14T04:55:17;99200.53;;;12.85;100.00
47815;BME280;33579;50.058;18.130;2023-06-14T04:56:19;99208.69;;;12.91;100.00
47815;BME280;33579;50.058;18.130;2023-06-14T04:57:22;99207.28;;;12.97;100.00
47815;BME280;33579;50.058;18.130;2023-06-14T04:58:25;99202.00;;;12.97;100.00
47815;BME280;33579;50.058;18.130;2023-06-14T04:59:26;99200.72;;;13.01;100.00
47815;BME280;33579;50.058;18.130;2023-06-14T05:00:28;99203.28;;;13.11;100.00
47815;BME280;33579;50.058;18.130;2023-06-14T05:01:30;99200.03;;;13.17;100.00
47815;BME280;33579;50.058;18.130;2023-06-14T05:02:32;99200.72;;;13.19;100.00
47815;BME280;33579;50.058;18.130;2023-06-14T05:03:34;99195.13;;;13.23;100.00
47815;BME280;33579;50.058;18.130;2023-06-14T05:04:37;99198.31;;;13.26;100.00
47815;BME280;33579;50.058;18.130;2023-06-14T05:05:40;99196.34;;;13.28;100.00
47815;BME280;33579;50.058;18.130;2023-06-14T05:06:43;99197.19;;;13.29;100.00
47815;BME280;33579;50.058;18.130;2023-06-14T05:07:44;99195.88;;;13.33;100.00
47815;BME280;33579;50.058;18.130;2023-06-14T05:08:46;99201.53;;;13.38;100.00
47815;BME280;33579;50.058;18.130;2023-06-14T05:09:48;99198.66;;;13.31;100.00
47815;BME280;33579;50.058;18.130;2023-06-14T05:10:50;99200.31;;;13.32;100.00
47815;BME280;33579;50.058;18.130;2023-06-14T05:11:52;99204.56;;;13.25;100.00
47815;BME280;33579;50.058;18.130;2023-06-14T05:12:54;99199.81;;;13.29;100.00
47815;BME280;33579;50.058;18.130;2023-06-14T05:13:56;99204.78;;;13.32;100.00
47815;BME280;33579;50.058;18.130;2023-06-14T05:14:58;99201.25;;;13.23;100.00
47815;BME280;33579;50.058;18.130;2023-06-14T05:15:59;99209.00;;;13.25;100.00
47815;BME280;33579;50.058;18.130;2023-06-14T05:17:01;99208.41;;;13.31;100.00
47815;BME280;33579;50.058;18.130;2023-06-14T05:18:03;99206.53;;;13.41;100.00
47815;BME280;33579;50.058;18.130;2023-06-14T05:19:04;99206.78;;;13.48;100.00
47815;BME280;33579;50.058;18.130;2023-06-14T05:20:07;99210.63;;;13.54;100.00
47815;BME280;33579;50.058;18.130;2023-06-14T05:21:08;99210.19;;;13.58;100.00
47815;BME280;33579;50.058;18.130;2023-06-14T05:22:10;99214.31;;;13.61;100.00
47815;BME280;33579;50.058;18.130;2023-06-14T05:23:12;99215.97;;;13.62;100.00
47815;BME280;33579;50.058;18.130;2023-06-14T05:24:14;99211.22;;;13.66;100.00
47815;BME280;33579;50.058;18.130;2023-06-14T05:25:16;99221.88;;;13.56;100.00